createdAt,value
2018-12-24T00:02:35.146Z,100033.31
2018-12-24T00:05:22.474Z,100041.61
2018-12-24T00:08:02.728Z,100037.95
2018-12-24T00:10:49.976Z,100041.53
2018-12-24T00:13:30.334Z,100049.64
2018-12-24T00:16:18.298Z,100056.91
2018-12-24T00:18:58.392Z,100053.83
2018-12-24T00:21:45.698Z,100040.41
2018-12-24T00:27:38.959Z,100045.56
2018-12-24T00:30:26.432Z,100047.41
2018-12-24T00:33:44.796Z,100039.55
2018-12-24T00:36:25.678Z,100051.09
2018-12-24T00:39:13.782Z,100046.43
2018-12-24T00:42:38.721Z,100053.22
2018-12-24T00:48:32.976Z,100053.63
2018-12-24T00:51:20.327Z,100054.03
2018-12-24T00:54:00.377Z,100046.06
2018-12-24T00:56:47.636Z,100055.50
2018-12-24T00:59:28.470Z,100052.97
2018-12-24T01:02:15.792Z,100047.30
2018-12-24T01:04:56.422Z,100046.02
2018-12-24T01:07:43.684Z,100050.38
2018-12-24T01:10:23.988Z,100052.72
2018-12-24T01:13:11.602Z,100064.77
2018-12-24T01:15:52.095Z,100058.58
2018-12-24T01:18:39.340Z,100058.94
2018-12-24T01:21:19.372Z,100068.84
2018-12-24T01:24:06.618Z,100079.91
2018-12-24T01:26:46.593Z,100077.84
2018-12-24T01:29:33.817Z,100073.39
2018-12-24T01:32:14.072Z,100086.34
2018-12-24T01:35:01.328Z,100079.88
2018-12-24T01:37:42.162Z,100082.33
2018-12-24T01:40:29.426Z,100080.34
2018-12-24T01:43:10.022Z,100074.78
2018-12-24T01:45:57.694Z,100087.41
2018-12-24T01:48:38.206Z,100083.23
2018-12-24T01:51:25.478Z,100084.34
2018-12-24T01:54:05.753Z,100086.85
2018-12-24T01:56:53.257Z,100090.70
2018-12-24T01:59:33.400Z,100095.12
2018-12-24T02:02:20.794Z,100103.32
2018-12-24T02:05:00.846Z,100099.27
2018-12-24T02:07:48.125Z,100101.41
2018-12-24T02:10:28.124Z,100108.47
2018-12-24T02:13:15.402Z,100102.15
2018-12-24T02:15:56.142Z,100100.61
2018-12-24T02:19:01.710Z,100099.60
2018-12-24T02:21:42.326Z,100098.13
2018-12-24T02:24:29.800Z,100104.49
2018-12-24T02:27:10.581Z,100106.62
2018-12-24T02:33:24.150Z,100111.98
2018-12-24T02:36:11.415Z,100117.41
2018-12-24T02:38:58.862Z,100117.36
2018-12-24T02:41:45.664Z,100129.23
2018-12-24T02:44:29.963Z,100135.48
2018-12-24T02:47:17.404Z,100132.75
2018-12-24T02:49:58.102Z,100135.56
2018-12-24T02:52:45.592Z,100147.91
2018-12-24T02:55:26.062Z,100149.59
2018-12-24T02:58:13.352Z,100145.86
2018-12-24T03:04:28.623Z,100160.74
2018-12-24T03:10:21.605Z,100159.06
2018-12-24T03:13:09.099Z,100160.16
2018-12-24T03:15:49.483Z,100168.58
2018-12-24T03:18:37.220Z,100173.98
2018-12-24T03:21:17.778Z,100172.39
2018-12-24T03:24:05.262Z,100173.33
2018-12-24T03:26:45.720Z,100177.57
2018-12-24T03:29:33.172Z,100180.22
2018-12-24T03:32:13.802Z,100192.45
2018-12-24T03:35:01.073Z,100193.80
2018-12-24T03:37:41.819Z,100198.78
2018-12-24T03:40:29.061Z,100190.88
2018-12-24T03:43:16.540Z,100202.80
2018-12-24T03:46:03.970Z,100206.48
2018-12-24T03:48:44.060Z,100214.11
2018-12-24T03:51:31.700Z,100212.33
2018-12-24T03:54:12.664Z,100223.03
2018-12-24T03:57:17.758Z,100223.42
2018-12-24T03:59:58.456Z,100236.92
2018-12-24T04:02:45.887Z,100232.70
2018-12-24T04:05:24.297Z,100236.41
2018-12-24T04:08:11.510Z,100245.85
2018-12-24T04:10:52.004Z,100251.38
2018-12-24T04:13:39.282Z,100259.36
2018-12-24T04:16:17.962Z,100262.47
2018-12-24T04:19:05.240Z,100265.85
2018-12-24T04:21:45.298Z,100274.25
2018-12-24T04:24:32.728Z,100284.38
2018-12-24T04:27:11.136Z,100281.80
2018-12-24T04:29:51.756Z,100302.39
2018-12-24T04:32:39.024Z,100300.48
2018-12-24T04:35:19.351Z,100317.52
2018-12-24T04:38:06.600Z,100330.73
2018-12-24T04:40:47.747Z,100336.81
2018-12-24T04:44:11.415Z,100340.06
2018-12-24T04:46:51.493Z,100350.95
2018-12-24T04:49:38.759Z,100364.03
2018-12-24T04:52:18.666Z,100372.58
2018-12-24T04:55:08.206Z,100377.39
2018-12-24T04:57:48.687Z,100397.21
2018-12-24T05:01:19.929Z,100396.25
2018-12-24T05:04:07.223Z,100411.48
2018-12-24T05:06:47.825Z,100427.53
2018-12-24T05:09:35.441Z,100441.64
2018-12-24T05:12:15.820Z,100453.27
2018-12-24T05:15:03.173Z,100469.44
2018-12-24T05:17:47.812Z,100487.74
2018-12-24T05:20:35.046Z,100500.53
2018-12-24T05:23:17.305Z,100513.97
2018-12-24T05:26:04.739Z,100521.97
2018-12-24T05:28:44.652Z,100534.01
2018-12-24T05:31:31.955Z,100542.88
2018-12-24T05:34:12.773Z,100560.91
2018-12-24T05:40:28.536Z,100573.34
2018-12-24T05:46:20.354Z,100598.38
2018-12-24T05:49:07.614Z,100616.63
2018-12-24T05:51:48.693Z,100625.97
2018-12-24T05:57:24.835Z,100649.48
2018-12-24T06:00:58.469Z,100664.70
2018-12-24T06:03:46.249Z,100671.91
2018-12-24T06:12:51.087Z,100709.30
2018-12-24T06:15:40.647Z,100726.83
2018-12-24T06:18:20.979Z,100730.97
2018-12-24T06:21:08.603Z,100743.52
2018-12-24T06:24:15.002Z,100761.38
2018-12-24T06:30:06.132Z,100777.06
2018-12-24T06:32:53.401Z,100796.42
2018-12-24T06:35:40.664Z,100809.27
2018-12-24T06:38:28.353Z,100815.95
2018-12-24T06:41:08.962Z,100826.77
2018-12-24T06:43:56.246Z,100831.12
2018-12-24T06:46:36.870Z,100850.48
2018-12-24T06:49:24.301Z,100855.16
2018-12-24T06:52:04.590Z,100862.69
2018-12-24T06:54:51.840Z,100878.87
2018-12-24T06:57:40.393Z,100885.55
2018-12-24T07:00:22.367Z,100899.36
2018-12-24T07:03:09.900Z,100899.53
2018-12-24T07:05:53.039Z,100916.58
2018-12-24T07:08:34.328Z,100921.58
2018-12-24T07:11:15.197Z,100935.91
2018-12-24T07:14:02.449Z,100940.59
2018-12-24T07:16:43.344Z,100954.13
2018-12-24T07:19:30.610Z,100957.95
2018-12-24T07:22:12.160Z,100964.96
2018-12-24T07:24:59.447Z,100972.16
2018-12-24T07:27:39.949Z,100980.64
2018-12-24T07:33:20.827Z,101004.02
2018-12-24T07:36:00.879Z,101010.05
2018-12-24T07:38:48.149Z,101013.17
2018-12-24T07:41:28.023Z,101016.38
2018-12-24T07:44:23.944Z,101020.73
2018-12-24T07:46:58.369Z,101038.78
2018-12-24T07:49:45.585Z,101044.61
2018-12-24T07:52:26.119Z,101046.79
2018-12-24T07:55:13.613Z,101057.16
2018-12-24T07:57:54.303Z,101062.19
2018-12-24T08:00:41.809Z,101072.86
2018-12-24T08:03:25.432Z,101079.87
2018-12-24T08:06:12.709Z,101087.94
2018-12-24T08:08:53.473Z,101093.76
2018-12-24T08:11:37.025Z,101103.92
2018-12-24T08:14:32.765Z,101113.45
2018-12-24T08:17:07.329Z,101115.25
2018-12-24T08:19:54.766Z,101120.06
2018-12-24T08:22:35.264Z,101135.26
2018-12-24T08:25:22.737Z,101145.41
2018-12-24T08:28:10.207Z,101152.83
2018-12-24T08:30:57.454Z,101153.47
2018-12-24T08:33:37.460Z,101160.02
2018-12-24T08:36:24.887Z,101156.98
2018-12-24T08:39:05.763Z,101165.11
2018-12-24T08:41:53.204Z,101171.90
2018-12-24T08:44:41.548Z,101170.77
2018-12-24T08:47:23.581Z,101186.18
2018-12-24T08:50:11.367Z,101189.30
2018-12-24T08:55:40.825Z,101218.38
2018-12-24T08:58:28.097Z,101218.61
2018-12-24T09:01:09.294Z,101229.38
2018-12-24T09:03:56.500Z,101240.34
2018-12-24T09:06:36.948Z,101250.80
2018-12-24T09:09:24.154Z,101261.42
2018-12-24T09:12:05.057Z,101269.98
2018-12-24T09:14:55.476Z,101273.54
2018-12-24T09:17:36.642Z,101275.97
2018-12-24T09:20:23.991Z,101277.52
2018-12-24T09:23:11.217Z,101278.65
2018-12-24T09:25:58.867Z,101280.94
2018-12-24T09:28:39.800Z,101288.21
2018-12-24T09:31:27.282Z,101287.89
2018-12-24T09:34:07.738Z,101285.98
2018-12-24T09:40:44.163Z,101292.23
2018-12-24T09:46:42.623Z,101311.77
2018-12-24T09:49:23.363Z,101321.14
2018-12-24T09:52:10.613Z,101323.13
2018-12-24T09:54:50.533Z,101314.39
2018-12-24T09:57:37.820Z,101314.70
2018-12-24T10:00:18.641Z,101307.41
2018-12-24T10:03:30.610Z,101327.22
2018-12-24T10:06:12.822Z,101331.86
2018-12-24T10:11:57.164Z,101337.73
2018-12-24T10:14:44.595Z,101327.00
2018-12-24T10:17:32.052Z,101335.65
2018-12-24T10:20:12.375Z,101325.29
2018-12-24T10:23:00.630Z,101324.46
2018-12-24T10:25:41.638Z,101335.52
2018-12-24T10:28:28.889Z,101350.77
2018-12-24T10:31:10.118Z,101349.06
2018-12-24T10:33:57.506Z,101350.72
2018-12-24T10:39:34.020Z,101361.87
2018-12-24T10:51:52.842Z,101371.28
2018-12-24T10:54:40.349Z,101378.66
2018-12-24T10:57:20.775Z,101371.67
2018-12-24T11:00:09.719Z,101377.55
2018-12-24T11:02:50.736Z,101379.02
2018-12-24T11:05:37.968Z,101375.91
2018-12-24T11:08:18.522Z,101368.70
2018-12-24T11:10:58.979Z,101374.03
2018-12-24T11:13:46.274Z,101381.80
2018-12-24T11:16:33.505Z,101383.38
2018-12-24T11:19:14.415Z,101392.50
2018-12-24T11:22:13.903Z,101394.91
2018-12-24T11:24:44.287Z,101404.09
2018-12-24T11:27:31.731Z,101419.84
2018-12-24T11:30:12.077Z,101430.91
2018-12-24T11:32:59.329Z,101432.88
2018-12-24T11:35:46.822Z,101432.88
2018-12-24T11:38:34.491Z,101444.25
2018-12-24T11:41:15.137Z,101444.88
2018-12-24T11:44:02.974Z,101445.61
2018-12-24T11:46:43.160Z,101454.00
2018-12-24T11:49:32.656Z,101455.16
2018-12-24T11:52:12.327Z,101459.70
2018-12-24T11:55:00.160Z,101469.67
2018-12-24T11:57:40.682Z,101465.06
2018-12-24T12:00:27.953Z,101466.70
2018-12-24T12:03:15.402Z,101466.27
2018-12-24T12:06:02.612Z,101476.39
2018-12-24T12:08:43.060Z,101484.56
2018-12-24T12:11:23.999Z,101493.35
2018-12-24T12:14:11.247Z,101496.05
2018-12-24T12:16:51.921Z,101494.17
2018-12-24T12:19:39.167Z,101500.59
2018-12-24T12:22:21.541Z,101507.94
2018-12-24T12:25:51.113Z,101516.05
2018-12-24T12:28:31.314Z,101515.16
2018-12-24T12:31:18.537Z,101535.30
2018-12-24T12:33:59.839Z,101536.16
2018-12-24T12:36:40.509Z,101547.23
2018-12-24T12:40:14.374Z,101547.67
2018-12-24T12:43:01.832Z,101548.56
2018-12-24T12:45:42.106Z,101553.59
2018-12-24T12:48:29.375Z,101569.38
2018-12-24T12:51:10.334Z,101571.30
2018-12-24T12:54:35.611Z,101574.92
2018-12-24T12:57:16.308Z,101579.20
2018-12-24T12:59:58.190Z,101590.14
2018-12-24T13:02:45.916Z,101594.56
2018-12-24T13:05:26.304Z,101601.42
2018-12-24T13:08:15.985Z,101604.13
2018-12-24T13:10:56.466Z,101614.97
2018-12-24T13:13:43.722Z,101622.38
2018-12-24T13:16:24.502Z,101626.14
2018-12-24T13:19:11.775Z,101626.34
2018-12-24T13:21:52.271Z,101631.33
2018-12-24T13:24:39.550Z,101636.33
2018-12-24T13:27:21.143Z,101637.95
2018-12-24T13:30:08.624Z,101634.39
2018-12-24T13:32:48.780Z,101645.19
2018-12-24T13:35:36.047Z,101655.20
2018-12-24T13:38:42.906Z,101661.00
2018-12-24T13:41:27.072Z,101659.25
2018-12-24T13:44:14.497Z,101678.23
2018-12-24T13:46:55.197Z,101675.53
2018-12-24T13:49:42.766Z,101693.16
2018-12-24T13:55:34.438Z,101698.61
2018-12-24T13:58:21.893Z,101700.33
2018-12-24T14:04:26.461Z,101713.39
2018-12-24T14:07:13.905Z,101718.58
2018-12-24T14:09:53.743Z,101730.30
2018-12-24T14:18:56.327Z,101750.64
2018-12-24T14:25:31.128Z,101760.16
2018-12-24T14:28:11.400Z,101762.83
2018-12-24T14:30:58.636Z,101762.89
2018-12-24T14:33:37.232Z,101770.16
2018-12-24T14:36:24.713Z,101783.61
2018-12-24T14:39:05.628Z,101771.91
2018-12-24T14:41:52.872Z,101784.31
2018-12-24T14:44:34.064Z,101783.77
2018-12-24T14:47:21.532Z,101779.26
2018-12-24T14:50:02.072Z,101779.87
2018-12-24T14:52:49.521Z,101788.84
2018-12-24T14:55:30.291Z,101794.19
2018-12-24T14:59:05.239Z,101795.65
2018-12-24T15:01:52.829Z,101807.56
2018-12-24T15:04:33.081Z,101806.72
2018-12-24T15:07:20.326Z,101805.12
2018-12-24T15:10:01.154Z,101808.73
2018-12-24T15:12:41.446Z,101805.12
2018-12-24T15:15:28.891Z,101802.83
2018-12-24T15:18:16.164Z,101798.77
2018-12-24T15:21:03.433Z,101797.34
2018-12-24T15:23:43.655Z,101809.87
2018-12-24T15:26:30.919Z,101802.70
2018-12-24T15:29:17.858Z,101806.28
2018-12-24T15:35:24.319Z,101814.00
2018-12-24T15:38:11.565Z,101815.81
2018-12-24T15:40:53.291Z,101828.99
2018-12-24T15:43:40.553Z,101834.63
2018-12-24T15:46:20.477Z,101839.13
2018-12-24T15:49:08.119Z,101845.82
2018-12-24T15:51:46.720Z,101854.84
2018-12-24T15:54:34.219Z,101863.45
2018-12-24T15:57:15.231Z,101885.66
2018-12-24T16:00:03.219Z,101885.79
2018-12-24T16:02:43.406Z,101881.01
2018-12-24T16:05:30.648Z,101875.85
2018-12-24T16:08:10.569Z,101884.91
2018-12-24T16:10:50.783Z,101884.70
2018-12-24T16:13:56.210Z,101888.77
2018-12-24T16:16:36.098Z,101891.09
2018-12-24T16:19:23.532Z,101888.25
2018-12-24T16:22:04.278Z,101897.95
2018-12-24T16:24:51.885Z,101884.05
2018-12-24T16:30:48.804Z,101894.84
2018-12-24T16:37:13.829Z,101893.56
2018-12-24T16:39:54.244Z,101895.14
2018-12-24T16:42:41.475Z,101888.23
2018-12-24T16:45:20.516Z,101890.41
2018-12-24T16:48:08.002Z,101880.33
2018-12-24T16:50:47.956Z,101882.52
2018-12-24T16:53:40.404Z,101872.43
2018-12-24T16:56:17.288Z,101874.98
2018-12-24T16:59:04.546Z,101877.37
2018-12-24T17:01:45.607Z,101871.66
2018-12-24T17:04:33.058Z,101871.09
2018-12-24T17:07:13.990Z,101867.55
2018-12-24T17:10:01.410Z,101880.14
2018-12-24T17:12:42.328Z,101883.77
2018-12-24T17:15:29.678Z,101891.84
2018-12-24T17:18:09.892Z,101894.00
2018-12-24T17:20:57.162Z,101896.95
2018-12-24T17:23:37.846Z,101912.98
2018-12-24T17:26:25.070Z,101914.34
2018-12-24T17:29:05.533Z,101911.05
2018-12-24T17:32:10.929Z,101912.97
2018-12-24T17:34:51.596Z,101909.02
2018-12-24T17:37:38.833Z,101899.73
2018-12-24T17:40:20.982Z,101899.69
2018-12-24T17:43:08.190Z,101909.02
2018-12-24T17:45:48.753Z,101904.72
2018-12-24T17:48:36.240Z,101914.18
2018-12-24T17:51:16.789Z,101923.95
2018-12-24T17:54:04.049Z,101920.78
2018-12-24T17:56:44.369Z,101925.56
2018-12-24T17:59:31.780Z,101918.76
2018-12-24T18:02:11.809Z,101911.96
2018-12-24T18:05:01.773Z,101911.83
2018-12-24T18:11:09.867Z,101902.80
2018-12-24T18:13:57.108Z,101891.56
2018-12-24T18:16:38.410Z,101886.91
2018-12-24T18:19:25.639Z,101889.61
2018-12-24T18:22:05.546Z,101879.22
2018-12-24T18:25:49.936Z,101880.48
2018-12-24T18:28:29.901Z,101883.73
2018-12-24T18:31:35.408Z,101896.24
2018-12-24T18:34:16.168Z,101902.09
2018-12-24T18:37:03.891Z,101908.75
2018-12-24T18:39:44.881Z,101913.56
2018-12-24T18:42:32.471Z,101915.23
2018-12-24T18:45:13.141Z,101936.12
2018-12-24T18:48:00.358Z,101933.77
2018-12-24T18:50:41.203Z,101928.91
2018-12-24T18:53:29.189Z,101927.35
2018-12-24T18:56:09.698Z,101925.57
2018-12-24T18:58:56.955Z,101919.95
2018-12-24T19:01:37.610Z,101924.30
2018-12-24T19:04:24.844Z,101916.91
2018-12-24T19:07:05.009Z,101890.27
2018-12-24T19:09:52.450Z,101894.50
2018-12-24T19:12:33.323Z,101907.11
2018-12-24T19:15:20.951Z,101905.91
2018-12-24T19:18:08.526Z,101917.04
2018-12-24T19:20:48.549Z,101924.55
2018-12-24T19:23:35.970Z,101927.73
2018-12-24T19:26:17.824Z,101921.80
2018-12-24T19:29:05.076Z,101910.97
2018-12-24T19:31:45.247Z,101904.85
2018-12-24T19:34:32.469Z,101909.02
2018-12-24T19:37:13.187Z,101914.52
2018-12-24T19:40:00.821Z,101919.86
2018-12-24T19:42:43.578Z,101920.91
2018-12-24T19:45:24.468Z,101920.67
2018-12-24T19:48:11.746Z,101909.30
2018-12-24T19:50:51.784Z,101912.98
2018-12-24T19:53:39.066Z,101910.25
2018-12-24T19:56:19.598Z,101905.09
2018-12-24T19:59:07.011Z,101903.52
2018-12-24T20:01:47.969Z,101908.23
2018-12-24T20:04:35.251Z,101915.95
2018-12-24T20:07:15.580Z,101926.52
2018-12-24T20:10:03.891Z,101925.14
2018-12-24T20:12:45.164Z,101928.84
2018-12-24T20:19:04.377Z,101945.69
2018-12-24T20:21:51.833Z,101949.04
2018-12-24T20:30:47.527Z,101955.02
2018-12-24T20:33:34.777Z,101954.78
2018-12-24T20:36:15.650Z,101946.13
2018-12-24T20:39:24.370Z,101938.45
2018-12-24T20:42:04.384Z,101945.75
2018-12-24T20:44:51.650Z,101941.39
2018-12-24T20:47:33.024Z,101940.96
2018-12-24T20:50:20.980Z,101944.80
2018-12-24T20:53:08.428Z,101951.34
2018-12-24T20:55:48.543Z,101945.27
2018-12-24T20:58:35.989Z,101957.09
2018-12-24T21:01:17.013Z,101962.28
2018-12-24T21:04:05.053Z,101970.36
2018-12-24T21:06:45.608Z,101972.34
2018-12-24T21:09:32.857Z,101974.45
2018-12-24T21:12:13.588Z,101969.44
2018-12-24T21:15:01.003Z,101973.17
2018-12-24T21:17:41.904Z,101977.55
2018-12-24T21:20:29.546Z,101964.82
2018-12-24T21:23:09.594Z,101976.69
2018-12-24T21:25:56.841Z,101969.47
2018-12-24T21:28:36.892Z,101970.16
2018-12-24T21:31:24.341Z,101974.87
2018-12-24T21:34:05.371Z,101968.23
2018-12-24T21:36:52.578Z,101969.55
2018-12-24T21:39:33.019Z,101961.99
2018-12-24T21:42:20.437Z,101959.26
2018-12-24T21:45:01.147Z,101961.61
2018-12-24T21:47:48.666Z,101954.23
2018-12-24T21:50:28.949Z,101954.61
2018-12-24T21:53:16.389Z,101943.60
2018-12-24T21:55:56.912Z,101952.39
2018-12-24T21:58:44.189Z,101959.19
2018-12-24T22:01:25.031Z,101949.69
2018-12-24T22:04:12.717Z,101952.52
2018-12-24T22:06:52.687Z,101953.86
2018-12-24T22:09:39.931Z,101957.41
2018-12-24T22:12:20.907Z,101955.27
2018-12-24T22:14:48.679Z,101948.29
2018-12-24T22:17:16.459Z,101943.49
2018-12-24T22:19:44.436Z,101945.92
2018-12-24T22:22:12.257Z,101941.42
2018-12-24T22:24:42.312Z,101946.48
2018-12-24T22:27:10.122Z,101938.28
2018-12-24T22:29:37.851Z,101949.69
2018-12-24T22:32:08.757Z,101938.95
2018-12-24T22:34:36.657Z,101933.48
2018-12-24T22:37:04.646Z,101931.58
2018-12-24T22:39:32.437Z,101924.06
2018-12-24T22:42:00.468Z,101928.80
2018-12-24T22:44:28.383Z,101921.88
2018-12-24T22:46:56.235Z,101924.20
2018-12-24T22:49:23.982Z,101921.80
2018-12-24T22:51:53.483Z,101917.61
2018-12-24T22:54:21.322Z,101921.10
2018-12-24T22:56:49.429Z,101921.70
2018-12-24T22:59:20.279Z,101923.28
2018-12-24T23:01:48.158Z,101913.80
2018-12-24T23:04:15.941Z,101921.14
2018-12-24T23:06:43.910Z,101909.55
2018-12-24T23:09:11.775Z,101907.31
2018-12-24T23:11:39.759Z,101916.71
2018-12-24T23:14:07.599Z,101920.32
2018-12-24T23:16:35.517Z,101922.23
2018-12-24T23:19:03.314Z,101921.22
2018-12-24T23:21:31.100Z,101930.42
2018-12-24T23:23:59.168Z,101931.13
2018-12-24T23:26:26.901Z,101924.14
2018-12-24T23:28:54.690Z,101920.92
2018-12-24T23:31:22.664Z,101923.78
2018-12-24T23:33:50.448Z,101921.92
2018-12-24T23:36:18.789Z,101919.38
2018-12-24T23:38:46.600Z,101925.45
2018-12-24T23:41:16.660Z,101924.25
2018-12-24T23:43:44.441Z,101919.27
2018-12-24T23:46:12.373Z,101917.94
2018-12-24T23:48:41.239Z,101917.27
2018-12-24T23:51:09.016Z,101920.69
2018-12-24T23:53:36.797Z,101918.41
2018-12-24T23:56:04.781Z,101917.45
2018-12-24T23:58:32.578Z,101917.38
